Time;durP1;ratioP1;P1;durP2;ratioP2;P2;SDS_P1;SDS_P2;PMS_P1;PMS_P2;Temp;Humidity;BMP_temperature;BMP_pressure;BME280_temperature;BME280_humidity;BME280_pressure;Samples;Min_cycle;Max_cycle;Signal;HPM_P1;HPM_P2
2023/10/12 00:01:31;;;;;;;;;;;;;;;27.67;43.32;94602.41;5051669;28;6969;-63
2023/10/12 00:04:05;;;;;;;;;;;;;;;27.67;43.08;94599.66;5037350;28;7235;-64
2023/10/12 00:06:43;;;;;;;;;;;;;;;27.68;43.16;94598.41;5003101;28;6987;-63
2023/10/12 00:09:25;;;;;;;;;;;;;;;27.66;42.82;94598.94;5028915;28;6974;-63
2023/10/12 00:12:35;;;;;;;;;;;;;;;27.67;42.91;94596.88;5021093;28;9115;-64
2023/10/12 00:15:17;;;;;;;;;;;;;;;27.64;43.47;94587.66;5047652;28;8851;-63
2023/10/12 00:17:58;;;;;;;;;;;;;;;27.64;43.00;94593.91;5019067;28;6995;-63
2023/10/12 00:22:56;;;;;;;;;;;;;;;27.63;42.96;94586.13;5029704;28;7204;-63
2023/10/12 00:25:23;;;;;;;;;;;;;;;27.63;43.35;94586.13;5036258;28;9189;-63
2023/10/12 00:27:51;;;;;;;;;;;;;;;27.61;43.08;94578.38;5016777;28;9002;-63
2023/10/12 00:30:17;;;;;;;;;;;;;;;27.62;42.96;94576.38;5036601;28;8593;-64
2023/10/12 00:32:46;;;;;;;;;;;;;;;27.61;43.49;94570.09;5015812;28;9382;-63
2023/10/12 00:35:14;;;;;;;;;;;;;;;27.64;42.81;94571.78;5028339;28;7161;-63
2023/10/12 00:37:48;;;;;;;;;;;;;;;27.62;43.34;94565.31;5032234;28;7204;-63
2023/10/12 00:40:25;;;;;;;;;;;;;;;27.62;43.17;94571.56;5042359;28;9230;-63
2023/10/12 00:43:00;;;;;;;;;;;;;;;27.61;43.36;94561.78;5054642;28;7029;-63
2023/10/12 00:45:32;;;;;;;;;;;;;;;27.60;43.60;94562.28;5061622;28;7410;-54
2023/10/12 00:48:07;;;;;;;;;;;;;;;27.59;43.21;94561.56;5068070;28;9051;-55
2023/10/12 00:50:56;;;;;;;;;;;;;;;27.59;43.18;94561.56;5054215;28;8531;-55
2023/10/12 00:53:31;;;;;;;;;;;;;;;27.58;42.83;94557.28;5054725;28;7295;-54
2023/10/12 00:56:11;;;;;;;;;;;;;;;27.56;43.23;94559.09;5053357;28;9472;-55
2023/10/12 00:58:38;;;;;;;;;;;;;;;27.58;43.14;94562.81;5065640;28;7211;-55
2023/10/12 01:01:37;;;;;;;;;;;;;;;27.58;43.00;94560.06;5053212;28;7380;-54
2023/10/12 01:04:16;;;;;;;;;;;;;;;27.56;43.28;94559.09;5051682;28;7286;-55
2023/10/12 01:06:59;;;;;;;;;;;;;;;27.57;43.43;94564.09;5052839;28;8719;-55
2023/10/12 01:09:43;;;;;;;;;;;;;;;27.55;42.66;94552.84;5079200;28;7526;-54
2023/10/12 01:12:13;;;;;;;;;;;;;;;27.56;43.33;94551.53;5052381;28;7224;-55
2023/10/12 01:14:43;;;;;;;;;;;;;;;27.56;43.22;94551.53;5063798;28;7054;-55
2023/10/12 01:17:18;;;;;;;;;;;;;;;27.55;42.98;94547.31;5086838;28;7021;-55
2023/10/12 01:20:21;;;;;;;;;;;;;;;27.53;42.76;94538.75;5049837;28;7087;-55
2023/10/12 01:22:48;;;;;;;;;;;;;;;27.49;43.00;94530.03;4975194;28;7322;-55
2023/10/12 01:25:28;;;;;;;;;;;;;;;27.53;43.04;94541.53;5000279;28;7037;-56
2023/10/12 01:27:55;;;;;;;;;;;;;;;27.52;42.99;94542.06;4999616;28;6983;-55
2023/10/12 01:30:53;;;;;;;;;;;;;;;27.53;42.99;94538.75;4983964;28;7283;-55
2023/10/12 01:33:21;;;;;;;;;;;;;;;27.53;43.50;94540.81;4970055;28;8792;-55
2023/10/12 01:35:59;;;;;;;;;;;;;;;27.52;43.12;94537.28;4953857;28;7322;-55
2023/10/12 01:39:11;;;;;;;;;;;;;;;27.53;43.08;94535.28;4974256;28;7011;-54
2023/10/12 01:41:43;;;;;;;;;;;;;;;27.52;43.10;94537.28;4898521;29;7218;-54
2023/10/12 01:44:12;;;;;;;;;;;;;;;27.51;43.02;94535.78;4895906;29;8689;-55
2023/10/12 01:46:56;;;;;;;;;;;;;;;27.50;43.05;94519.72;4896303;29;7414;-54
2023/10/12 01:49:36;;;;;;;;;;;;;;;27.51;42.87;94524.72;4879988;29;7069;-55
2023/10/12 01:52:03;;;;;;;;;;;;;;;27.50;43.20;94533.53;4898388;29;7259;-55
2023/10/12 01:54:44;;;;;;;;;;;;;;;27.50;43.21;94528.00;4882765;29;6865;-54
2023/10/12 01:57:30;;;;;;;;;;;;;;;27.45;43.19;94515.75;4879760;29;8840;-54
2023/10/12 01:59:58;;;;;;;;;;;;;;;27.47;43.39;94531.84;4917925;29;7286;-55
2023/10/12 02:03:18;;;;;;;;;;;;;;;27.48;43.39;94525.03;4951838;28;9350;-55
2023/10/12 02:06:04;;;;;;;;;;;;;;;27.47;43.04;94526.31;4924825;29;7557;-55
2023/10/12 02:08:52;;;;;;;;;;;;;;;27.46;43.28;94519.28;4919594;29;7149;-53
2023/10/12 02:11:53;;;;;;;;;;;;;;;27.47;43.14;94523.53;4955138;28;7194;-54
2023/10/12 02:14:33;;;;;;;;;;;;;;;27.44;43.56;94522.56;4952676;28;7148;-54
2023/10/12 02:17:02;;;;;;;;;;;;;;;27.44;42.73;94522.56;4961655;28;8825;-53
2023/10/12 02:19:44;;;;;;;;;;;;;;;27.44;43.43;94522.56;4993835;28;8734;-55
2023/10/12 02:22:30;;;;;;;;;;;;;;;27.44;43.17;94524.56;4988410;28;7233;-55
2023/10/12 02:25:17;;;;;;;;;;;;;;;27.42;43.10;94510.53;4978171;28;7210;-55
2023/10/12 02:27:57;;;;;;;;;;;;;;;27.41;43.29;94529.13;4995924;28;7569;-55
2023/10/12 02:30:28;;;;;;;;;;;;;;;27.38;43.50;94521.13;5002450;28;7360;-55
2023/10/12 02:33:13;;;;;;;;;;;;;;;27.38;43.09;94521.84;4986908;28;8844;-55
2023/10/12 02:35:44;;;;;;;;;;;;;;;27.41;43.29;94520.84;5001128;28;7002;-53
2023/10/12 02:38:28;;;;;;;;;;;;;;;27.40;43.25;94519.34;4993902;28;7395;-56
2023/10/12 02:41:24;;;;;;;;;;;;;;;27.41;43.22;94514.56;5001171;28;7366;-55
2023/10/12 02:44:19;;;;;;;;;;;;;;;27.40;43.00;94507.56;4995510;28;7379;-54
2023/10/12 02:47:33;;;;;;;;;;;;;;;27.41;43.22;94517.31;5013753;28;7090;-55
2023/10/12 02:50:14;;;;;;;;;;;;;;;27.40;43.71;94508.31;4935364;29;8772;-55
2023/10/12 02:53:05;;;;;;;;;;;;;;;27.41;43.29;94506.25;4934200;29;9277;-55
2023/10/12 02:55:46;;;;;;;;;;;;;;;27.40;43.55;94502.78;4918177;29;7222;-55
2023/10/12 02:58:23;;;;;;;;;;;;;;;27.44;43.00;94503.22;4925042;29;9054;-55
2023/10/12 03:01:29;;;;;;;;;;;;;;;27.44;42.94;94511.50;4920530;28;9081;-55
2023/10/12 03:04:11;;;;;;;;;;;;;;;27.47;42.99;94506.97;4925555;29;7301;-56
2023/10/12 03:06:55;;;;;;;;;;;;;;;27.48;42.68;94514.72;4917103;29;9837;-57
2023/10/12 03:09:56;;;;;;;;;;;;;;;27.48;42.88;94508.44;4918445;29;7244;-57
2023/10/12 03:12:34;;;;;;;;;;;;;;;27.47;43.60;94507.69;4873337;29;9041;-56
2023/10/12 03:15:14;;;;;;;;;;;;;;;27.49;43.19;94515.47;4859305;29;7058;-56
2023/10/12 03:17:45;;;;;;;;;;;;;;;27.47;42.84;94513.22;4859769;29;7181;-56
2023/10/12 03:21:02;;;;;;;;;;;;;;;27.48;43.43;94525.78;4906458;28;8715;-56
2023/10/12 03:23:19;;;;;;;;;;;;;;;27.46;42.85;94528.31;4964467;28;7245;-56
2023/10/12 03:25:54;;;;;;;;;;;;;;;27.45;42.89;94515.75;4956791;28;9386;-56
2023/10/12 03:28:30;;;;;;;;;;;;;;;27.46;43.08;94522.03;4968201;28;7495;-56
2023/10/12 03:33:57;;;;;;;;;;;;;;;27.44;43.12;94522.56;4949461;28;9139;-56
2023/10/12 03:36:25;;;;;;;;;;;;;;;27.43;43.15;94512.78;4958198;28;9532;-57
2023/10/12 03:41:47;;;;;;;;;;;;;;;27.46;42.91;94519.28;4972749;28;6999;-57
2023/10/12 03:55:29;;;;;;;;;;;;;;;27.43;43.05;94518.28;5016790;28;8877;-56
2023/10/12 03:58:07;;;;;;;;;;;;;;;27.43;42.78;94506.50;5019706;28;7334;-57
2023/10/12 04:01:02;;;;;;;;;;;;;;;27.42;42.99;94499.50;5006218;28;7236;-56
2023/10/12 04:03:39;;;;;;;;;;;;;;;27.42;42.92;94500.25;5014304;28;7222;-56
2023/10/12 04:06:46;;;;;;;;;;;;;;;27.41;42.75;94504.25;5030757;28;9123;-56
2023/10/12 04:09:15;;;;;;;;;;;;;;;27.41;43.18;94504.25;5023483;28;9054;-56
2023/10/12 04:11:52;;;;;;;;;;;;;;;27.40;42.99;94502.78;5019214;28;9415;-56
2023/10/12 04:17:41;;;;;;;;;;;;;;;27.40;43.15;94502.78;5029223;28;8986;-63
2023/10/12 04:20:14;;;;;;;;;;;;;;;27.40;42.86;94504.78;5018751;28;9134;-63
2023/10/12 04:23:04;;;;;;;;;;;;;;;27.39;43.07;94498.50;5002357;28;7279;-63
2023/10/12 04:25:46;;;;;;;;;;;;;;;27.39;43.38;94506.03;5027169;28;8237;-64
2023/10/12 04:28:55;;;;;;;;;;;;;;;27.39;43.03;94506.03;5011956;28;7059;-64
2023/10/12 04:34:15;;;;;;;;;;;;;;;27.36;42.88;94510.59;4971539;28;7261;-63
2023/10/12 04:39:36;;;;;;;;;;;;;;;27.36;42.87;94505.06;4973771;28;7427;-64
2023/10/12 04:42:34;;;;;;;;;;;;;;;27.37;43.14;94512.09;4952570;29;7003;-63
2023/10/12 04:46:05;;;;;;;;;;;;;;;27.37;43.06;94514.09;4917811;29;7228;-63
2023/10/12 04:48:09;;;;;;;;;;;;;;;27.36;42.96;94507.81;4909488;29;8902;-64
2023/10/12 04:51:07;;;;;;;;;;;;;;;27.34;42.99;94513.09;4898874;29;7388;-63
2023/10/12 04:54:04;;;;;;;;;;;;;;;27.33;42.33;94513.63;4858600;29;8701;-64
2023/10/12 04:56:36;;;;;;;;;;;;;;;27.28;43.09;94509.66;4833302;29;7173;-63
2023/10/12 04:59:14;;;;;;;;;;;;;;;27.27;43.20;94510.19;4852599;29;8357;-63
2023/10/12 05:09:53;;;;;;;;;;;;;;;27.24;43.22;94511.22;4927694;29;7119;-63
2023/10/12 05:12:25;;;;;;;;;;;;;;;27.23;43.14;94507.69;4925081;29;7075;-64
2023/10/12 05:15:00;;;;;;;;;;;;;;;27.22;43.21;94503.44;4928694;29;7225;-63
2023/10/12 05:17:35;;;;;;;;;;;;;;;27.20;43.31;94500.47;4924574;28;9001;-63
2023/10/12 05:20:23;;;;;;;;;;;;;;;27.21;43.11;94503.97;4943970;28;9312;-63
2023/10/12 05:23:03;;;;;;;;;;;;;;;27.21;43.14;94501.94;4972352;28;7344;-63
2023/10/12 05:28:35;;;;;;;;;;;;;;;27.20;43.23;94505.97;4956632;28;8816;-61
2023/10/12 05:33:43;;;;;;;;;;;;;;;27.17;43.11;94520.81;5057312;28;7283;-61
2023/10/12 05:36:18;;;;;;;;;;;;;;;27.19;43.04;94526.56;5052864;28;7806;-61
2023/10/12 05:39:29;;;;;;;;;;;;;;;27.20;43.07;94541.88;5054680;28;9117;-61
2023/10/12 05:41:57;;;;;;;;;;;;;;;27.18;43.23;94536.13;4978630;28;9406;-61
2023/10/12 05:44:34;;;;;;;;;;;;;;;27.19;43.10;94548.66;4984988;28;7212;-61
2023/10/12 05:47:00;;;;;;;;;;;;;;;27.17;43.20;94528.34;5004562;28;7500;-61
2023/10/12 05:49:33;;;;;;;;;;;;;;;27.19;42.74;94536.84;4986202;28;7344;-61
2023/10/12 05:52:36;;;;;;;;;;;;;;;27.18;43.25;94541.66;4979578;28;7217;-61
2023/10/12 05:55:16;;;;;;;;;;;;;;;27.15;42.70;94530.88;4935695;29;7151;-61
2023/10/12 05:58:11;;;;;;;;;;;;;;;27.17;43.06;94542.16;4936138;29;9114;-61
2023/10/12 06:00:46;;;;;;;;;;;;;;;27.17;43.09;94547.69;4936137;28;7287;-61
2023/10/12 06:03:21;;;;;;;;;;;;;;;27.17;43.27;94555.97;4935938;28;7247;-61
2023/10/12 06:05:48;;;;;;;;;;;;;;;27.12;42.96;94551.97;4920511;29;7168;-61
2023/10/12 06:08:16;;;;;;;;;;;;;;;27.16;43.40;94563.50;4945078;28;6980;-61
2023/10/12 06:11:01;;;;;;;;;;;;;;;27.16;43.34;94563.50;4920455;29;7436;-61
2023/10/12 06:13:42;;;;;;;;;;;;;;;27.15;43.38;94570.28;4935980;29;7262;-61
2023/10/12 06:16:15;;;;;;;;;;;;;;;27.14;43.48;94576.34;4918023;29;7012;-61
2023/10/12 06:18:44;;;;;;;;;;;;;;;27.14;43.43;94577.09;4942993;28;8248;-61
2023/10/12 06:21:19;;;;;;;;;;;;;;;27.12;43.20;94573.34;4974564;28;7378;-62
2023/10/12 06:23:50;;;;;;;;;;;;;;;27.15;43.10;94581.34;4988207;28;7216;-61
2023/10/12 06:26:30;;;;;;;;;;;;;;;27.14;43.19;94585.38;4987090;28;7305;-61
2023/10/12 06:29:03;;;;;;;;;;;;;;;27.13;43.29;94581.09;5026805;28;7253;-61
2023/10/12 06:31:33;;;;;;;;;;;;;;;27.12;43.22;94585.13;5057215;28;7228;-61
2023/10/12 06:34:03;;;;;;;;;;;;;;;27.13;43.05;94588.63;5056728;28;7294;-61
2023/10/12 06:36:39;;;;;;;;;;;;;;;27.12;43.21;94596.16;5064285;28;9606;-61
2023/10/12 06:44:27;;;;;;;;;;;;;;;27.12;43.54;94603.72;5064595;28;9085;-61
2023/10/12 06:46:57;;;;;;;;;;;;;;;27.10;43.37;94606.97;5043392;28;7516;-61
2023/10/12 06:49:24;;;;;;;;;;;;;;;27.11;43.21;94610.50;5070906;28;9040;-61
2023/10/12 06:52:01;;;;;;;;;;;;;;;27.10;43.22;94612.50;5050897;28;7050;-61
2023/10/12 06:54:49;;;;;;;;;;;;;;;27.09;43.58;94616.53;5057820;28;9050;-61
2023/10/12 07:02:24;;;;;;;;;;;;;;;27.11;43.13;94624.28;5065967;28;7592;-61
2023/10/12 07:04:53;;;;;;;;;;;;;;;27.12;43.14;94629.28;5061135;28;7005;-61
2023/10/12 07:07:27;;;;;;;;;;;;;;;27.12;43.18;94628.56;5079429;28;7021;-61
2023/10/12 07:10:20;;;;;;;;;;;;;;;27.13;43.04;94635.56;5085486;28;7017;-61
2023/10/12 07:12:49;;;;;;;;;;;;;;;27.13;43.04;94639.09;5058916;28;6996;-61
2023/10/12 07:15:22;;;;;;;;;;;;;;;27.14;43.11;94640.59;5060453;28;9178;-61
2023/10/12 07:17:52;;;;;;;;;;;;;;;27.15;43.18;94647.59;5083239;28;8995;-61
2023/10/12 07:23:10;;;;;;;;;;;;;;;27.08;43.41;94645.41;5080363;28;9731;-61
2023/10/12 07:25:43;;;;;;;;;;;;;;;27.09;43.15;94649.66;5068806;28;7232;-62
2023/10/12 07:28:33;;;;;;;;;;;;;;;27.09;43.25;94641.38;5068780;28;9013;-61
2023/10/12 07:31:05;;;;;;;;;;;;;;;27.11;43.36;94655.44;5063995;28;7277;-61
2023/10/12 07:33:32;;;;;;;;;;;;;;;27.11;42.92;94641.63;5073028;28;7017;-61
2023/10/12 07:36:17;;;;;;;;;;;;;;;27.11;43.05;94640.88;5049684;28;9073;-61
2023/10/12 07:38:46;;;;;;;;;;;;;;;27.11;43.27;94640.88;5063214;28;7514;-61
2023/10/12 07:41:14;;;;;;;;;;;;;;;27.11;43.17;94647.13;5065320;28;7122;-62
2023/10/12 07:43:43;;;;;;;;;;;;;;;27.11;43.08;94647.13;5088187;28;8196;-61
2023/10/12 07:46:24;;;;;;;;;;;;;;;27.11;43.23;94644.38;5070214;28;7256;-61
2023/10/12 07:48:51;;;;;;;;;;;;;;;27.10;43.27;94648.38;5058892;28;7320;-61
2023/10/12 07:51:26;;;;;;;;;;;;;;;27.10;43.11;94653.19;5073179;28;7982;-61
2023/10/12 07:54:12;;;;;;;;;;;;;;;27.11;43.38;94651.91;5080216;28;7379;-61
2023/10/12 07:56:40;;;;;;;;;;;;;;;27.11;43.37;94649.91;5055629;28;7257;-62
2023/10/12 07:59:13;;;;;;;;;;;;;;;27.10;43.17;94644.91;5080921;28;7275;-61
2023/10/12 08:01:46;;;;;;;;;;;;;;;27.09;43.31;94643.38;5065054;28;7752;-61
2023/10/12 08:04:31;;;;;;;;;;;;;;;27.09;43.67;94637.88;5042245;28;7515;-62
2023/10/12 08:06:57;;;;;;;;;;;;;;;27.09;43.29;94641.38;5058556;28;9087;-61
2023/10/12 08:11:54;;;;;;;;;;;;;;;27.11;43.29;94630.56;5070137;28;9433;-61
2023/10/12 08:19:45;;;;;;;;;;;;;;;27.10;43.22;94628.34;5055892;28;8957;-61
2023/10/12 08:22:29;;;;;;;;;;;;;;;27.09;43.48;94630.34;5078281;28;9156;-61
2023/10/12 08:25:04;;;;;;;;;;;;;;;27.10;43.22;94637.34;5044004;28;9465;-61
2023/10/12 08:28:18;;;;;;;;;;;;;;;27.11;43.38;94636.09;5045286;28;7272;-61
2023/10/12 08:30:57;;;;;;;;;;;;;;;27.07;43.32;94638.41;5035993;28;7313;-62
2023/10/12 08:33:48;;;;;;;;;;;;;;;27.11;43.37;94636.09;5053447;28;7242;-61
2023/10/12 08:38:54;;;;;;;;;;;;;;;27.12;43.21;94620.28;5061656;28;7036;-61
2023/10/12 08:42:29;;;;;;;;;;;;;;;27.15;43.16;94613.72;5079150;28;7239;-61
2023/10/12 08:44:43;;;;;;;;;;;;;;;27.15;43.35;94608.19;5035878;28;8748;-61
2023/10/12 08:47:44;;;;;;;;;;;;;;;27.16;43.29;94604.19;5020916;28;6992;-61
2023/10/12 08:53:07;;;;;;;;;;;;;;;27.15;42.88;94597.16;5042235;28;9228;-62
2023/10/12 08:55:36;;;;;;;;;;;;;;;27.15;43.08;94592.38;5017317;28;7278;-61
2023/10/12 08:58:31;;;;;;;;;;;;;;;27.15;43.33;94600.66;5028953;28;9269;-61
2023/10/12 09:01:10;;;;;;;;;;;;;;;27.12;43.03;94598.91;5021329;28;7114;-61
2023/10/12 09:04:00;;;;;;;;;;;;;;;27.17;43.47;94605.66;5021059;28;7363;-61
2023/10/12 09:09:26;;;;;;;;;;;;;;;27.16;42.87;94613.22;5033093;28;9543;-61
2023/10/12 09:11:59;;;;;;;;;;;;;;;27.17;42.91;94625.00;5027272;28;7269;-61
2023/10/12 09:14:43;;;;;;;;;;;;;;;27.16;42.84;94615.22;5028711;28;8798;-61
2023/10/12 09:17:27;;;;;;;;;;;;;;;27.13;43.40;94616.25;5011319;28;9162;-61
2023/10/12 09:27:06;;;;;;;;;;;;;;;27.17;43.32;94622.97;4967429;28;7271;-61
2023/10/12 09:30:01;;;;;;;;;;;;;;;27.14;43.32;94612.22;4961581;28;6999;-61
2023/10/12 09:32:57;;;;;;;;;;;;;;;27.17;43.22;94617.47;4961196;28;7237;-61
2023/10/12 09:35:33;;;;;;;;;;;;;;;27.18;43.16;94621.72;4949174;28;7339;-61
2023/10/12 09:38:05;;;;;;;;;;;;;;;27.19;43.26;94614.19;4959991;28;7074;-61
2023/10/12 09:40:39;;;;;;;;;;;;;;;27.18;43.15;94629.25;4968130;28;7178;-61
2023/10/12 09:43:25;;;;;;;;;;;;;;;27.17;43.11;94611.94;4965541;28;7221;-61
2023/10/12 09:46:27;;;;;;;;;;;;;;;27.21;42.96;94620.69;4958925;28;7535;-61
2023/10/12 09:49:21;;;;;;;;;;;;;;;27.21;43.12;94626.22;4904200;29;8881;-62
2023/10/12 09:52:18;;;;;;;;;;;;;;;27.21;43.15;94631.72;4901650;29;7122;-61
2023/10/12 09:55:14;;;;;;;;;;;;;;;27.23;42.98;94623.69;4917583;29;7174;-61
2023/10/12 09:57:49;;;;;;;;;;;;;;;27.24;43.54;94632.72;4917262;29;8038;-61
2023/10/12 10:00:55;;;;;;;;;;;;;;;27.22;43.37;94630.47;4934185;28;7590;-61
2023/10/12 10:03:34;;;;;;;;;;;;;;;27.23;42.96;94636.75;5008371;28;8835;-63
2023/10/12 10:06:20;;;;;;;;;;;;;;;27.20;43.24;94632.25;5005998;28;7159;-63
2023/10/12 10:11:58;;;;;;;;;;;;;;;27.24;43.05;94639.00;5011295;28;7531;-63
2023/10/12 10:14:36;;;;;;;;;;;;;;;27.26;43.75;94633.69;4987899;28;7375;-63
2023/10/12 10:17:25;;;;;;;;;;;;;;;27.28;43.10;94633.19;5022796;28;7513;-63
2023/10/12 10:23:24;;;;;;;;;;;;;;;27.28;43.02;94639.47;5013131;28;7110;-63
2023/10/12 10:26:16;;;;;;;;;;;;;;;27.29;43.13;94629.91;4978628;28;7248;-63
2023/10/12 10:29:04;;;;;;;;;;;;;;;27.29;43.17;94629.91;4987146;28;9090;-63
2023/10/12 10:31:36;;;;;;;;;;;;;;;27.29;42.57;94629.91;4982679;28;7034;-63
2023/10/12 10:34:12;;;;;;;;;;;;;;;27.32;43.24;94628.88;4993404;28;7069;-63
2023/10/12 10:36:40;;;;;;;;;;;;;;;27.33;42.89;94630.38;4976967;28;9027;-63
2023/10/12 10:42:00;;;;;;;;;;;;;;;27.36;43.07;94631.41;4983102;28;7198;-63
2023/10/12 10:44:27;;;;;;;;;;;;;;;27.36;43.21;94631.41;4977214;28;7245;-63
2023/10/12 10:47:06;;;;;;;;;;;;;;;27.38;42.70;94634.38;4977647;28;8935;-63
2023/10/12 10:49:33;;;;;;;;;;;;;;;27.33;42.92;94624.09;4976513;28;7763;-63
2023/10/12 10:54:56;;;;;;;;;;;;;;;27.35;42.38;94630.63;4996588;28;7273;-63
2023/10/12 10:57:37;;;;;;;;;;;;;;;27.35;42.64;94630.63;4985682;28;8480;-62
2023/10/12 11:00:17;;;;;;;;;;;;;;;27.36;43.09;94623.84;4976910;28;7070;-63
2023/10/12 11:02:53;;;;;;;;;;;;;;;27.38;42.98;94626.09;5049496;28;7289;-63
2023/10/12 11:05:30;;;;;;;;;;;;;;;27.37;43.27;94625.34;5057673;28;8789;-63
2023/10/12 11:08:19;;;;;;;;;;;;;;;27.38;42.67;94618.53;5050035;28;7297;-63
2023/10/12 11:13:44;;;;;;;;;;;;;;;27.39;42.75;94611.00;5063092;28;8924;-63
2023/10/12 11:16:28;;;;;;;;;;;;;;;27.39;42.96;94606.22;5077348;28;7001;-63
2023/10/12 11:19:01;;;;;;;;;;;;;;;27.40;43.15;94613.28;5043579;28;7375;-63
2023/10/12 11:21:51;;;;;;;;;;;;;;;27.40;42.62;94610.50;5075406;28;7655;-63
2023/10/12 11:24:18;;;;;;;;;;;;;;;27.38;42.95;94599.19;5049056;28;7401;-62
2023/10/12 11:26:52;;;;;;;;;;;;;;;27.40;43.20;94596.69;5050775;28;9144;-63
2023/10/12 11:29:19;;;;;;;;;;;;;;;27.42;43.11;94598.94;5071074;28;8530;-63
2023/10/12 11:32:10;;;;;;;;;;;;;;;27.43;42.85;94594.88;5045329;28;7731;-62
2023/10/12 11:34:53;;;;;;;;;;;;;;;27.45;42.90;94593.09;5053858;28;9288;-63
2023/10/12 11:37:25;;;;;;;;;;;;;;;27.44;43.06;94590.88;5051247;28;7249;-62
2023/10/12 11:39:52;;;;;;;;;;;;;;;27.45;42.63;94589.59;5051986;28;7192;-63
2023/10/12 11:42:18;;;;;;;;;;;;;;;27.47;42.75;94585.03;5054711;28;7347;-63
2023/10/12 11:44:51;;;;;;;;;;;;;;;27.49;43.27;94587.31;5056306;28;8884;-63
2023/10/12 11:47:17;;;;;;;;;;;;;;;27.49;42.93;94581.78;5045319;28;8749;-62
2023/10/12 11:50:09;;;;;;;;;;;;;;;27.46;43.11;94571.75;5044888;28;7071;-62
2023/10/12 11:52:40;;;;;;;;;;;;;;;27.50;43.00;94569.44;5065436;28;8765;-63
2023/10/12 11:55:18;;;;;;;;;;;;;;;27.47;43.04;94565.72;5074776;28;9386;-63
2023/10/12 11:57:54;;;;;;;;;;;;;;;27.54;43.26;94567.91;5074721;28;8929;-63
2023/10/12 12:00:31;;;;;;;;;;;;;;;27.57;42.61;94563.34;5090697;28;7472;-63
2023/10/12 12:03:11;;;;;;;;;;;;;;;27.58;42.58;94567.59;5053953;28;6989;-63
2023/10/12 12:05:51;;;;;;;;;;;;;;;27.62;42.44;94565.31;5056224;28;7475;-63
2023/10/12 12:08:40;;;;;;;;;;;;;;;27.62;42.58;94563.28;5062941;28;9049;-63
2023/10/12 12:11:39;;;;;;;;;;;;;;;27.63;42.80;94559.25;5054366;28;7579;-63
2023/10/12 12:14:22;;;;;;;;;;;;;;;27.64;42.48;94552.44;5015602;28;7279;-63
2023/10/12 12:16:49;;;;;;;;;;;;;;;27.68;43.01;94545.88;4983914;28;8965;-63
2023/10/12 12:19:22;;;;;;;;;;;;;;;27.69;42.88;94545.34;5007624;28;7267;-62
2023/10/12 12:21:48;;;;;;;;;;;;;;;27.69;42.94;94544.63;4991397;28;7334;-63
2023/10/12 12:24:24;;;;;;;;;;;;;;;27.68;42.84;94543.88;5003242;28;9322;-65
2023/10/12 12:26:53;;;;;;;;;;;;;;;27.73;42.24;94540.28;4989391;28;7241;-65
2023/10/12 12:29:27;;;;;;;;;;;;;;;27.75;42.69;94537.03;5004115;28;7244;-65
2023/10/12 12:32:03;;;;;;;;;;;;;;;27.77;42.60;94537.25;5004626;28;7238;-65
2023/10/12 12:34:41;;;;;;;;;;;;;;;27.79;42.75;94535.44;4999722;28;7036;-65
2023/10/12 12:37:08;;;;;;;;;;;;;;;27.83;42.66;94533.13;4993448;28;7236;-65
2023/10/12 12:39:35;;;;;;;;;;;;;;;27.85;42.49;94529.84;4998575;28;7488;-65
2023/10/12 12:42:11;;;;;;;;;;;;;;;27.86;42.50;94531.34;4990933;28;8974;-65
2023/10/12 12:44:39;;;;;;;;;;;;;;;27.89;42.68;94533.06;4973667;28;9175;-65
2023/10/12 12:47:16;;;;;;;;;;;;;;;27.92;42.79;94534.78;5008102;28;7260;-65
2023/10/12 12:49:42;;;;;;;;;;;;;;;27.93;42.86;94525.19;5026805;28;7279;-65
2023/10/12 12:52:25;;;;;;;;;;;;;;;27.96;43.25;94529.69;5060963;28;9273;-65
2023/10/12 12:55:01;;;;;;;;;;;;;;;27.97;42.33;94536.72;5086260;28;9082;-65
2023/10/12 12:57:33;;;;;;;;;;;;;;;27.98;42.51;94532.72;5075546;28;7236;-65
2023/10/12 13:00:19;;;;;;;;;;;;;;;28.01;42.48;94528.91;5057255;28;9447;-65
2023/10/12 13:03:02;;;;;;;;;;;;;;;28.03;42.48;94523.59;5037138;28;7252;-65
2023/10/12 13:05:37;;;;;;;;;;;;;;;28.03;42.80;94524.34;5045351;28;7263;-65
2023/10/12 13:08:22;;;;;;;;;;;;;;;28.04;42.05;94525.84;5059276;28;9317;-65
2023/10/12 13:10:50;;;;;;;;;;;;;;;28.03;42.67;94518.06;5087982;28;7120;-65
2023/10/12 13:13:21;;;;;;;;;;;;;;;28.03;42.32;94518.81;5063386;28;9209;-65
2023/10/12 13:15:49;;;;;;;;;;;;;;;28.04;42.37;94516.78;5056820;28;6993;-65
2023/10/12 13:18:29;;;;;;;;;;;;;;;28.05;42.53;94521.81;5053423;28;7047;-65
2023/10/12 13:21:24;;;;;;;;;;;;;;;28.07;42.82;94521.28;5057841;28;6997;-65
2023/10/12 13:23:51;;;;;;;;;;;;;;;28.06;42.43;94522.53;4990996;28;7237;-65
2023/10/12 13:26:29;;;;;;;;;;;;;;;28.05;42.54;94513.50;4949637;28;7057;-65
2023/10/12 13:29:02;;;;;;;;;;;;;;;28.08;42.09;94514.47;4979679;28;7007;-65
2023/10/12 13:31:46;;;;;;;;;;;;;;;28.13;42.34;94519.94;4996036;28;7253;-65
2023/10/12 13:34:39;;;;;;;;;;;;;;;28.14;42.05;94521.41;4978767;28;8831;-61
2023/10/12 13:37:09;;;;;;;;;;;;;;;28.13;43.13;94519.19;4969375;28;7239;-61
2023/10/12 13:39:37;;;;;;;;;;;;;;;28.13;42.91;94508.88;4986450;28;7311;-61
2023/10/12 13:42:20;;;;;;;;;;;;;;;28.16;42.61;94509.84;4985573;28;7339;-61
2023/10/12 13:44:49;;;;;;;;;;;;;;;28.15;42.52;94509.09;4984515;28;9059;-61
2023/10/12 13:47:31;;;;;;;;;;;;;;;28.13;42.62;94503.34;4995421;28;8792;-61
2023/10/12 13:50:00;;;;;;;;;;;;;;;28.13;42.62;94502.59;4976058;28;8835;-61
2023/10/12 13:52:35;;;;;;;;;;;;;;;28.12;42.45;94493.53;4959810;28;6979;-61
2023/10/12 13:55:15;;;;;;;;;;;;;;;28.17;42.01;94508.56;4984966;28;8777;-61
2023/10/12 13:57:55;;;;;;;;;;;;;;;28.16;42.44;94501.53;4988116;28;9411;-61
2023/10/12 14:00:25;;;;;;;;;;;;;;;28.17;42.50;94503.03;5020815;28;9128;-61
2023/10/12 14:03:17;;;;;;;;;;;;;;;28.12;42.51;94496.31;5055396;28;8861;-61
2023/10/12 14:06:01;;;;;;;;;;;;;;;28.14;42.60;94491.00;5054716;28;7218;-61
2023/10/12 14:08:32;;;;;;;;;;;;;;;28.12;42.47;94487.28;5094337;28;9041;-61
2023/10/12 14:11:19;;;;;;;;;;;;;;;28.13;42.19;94486.00;5044774;28;7019;-61
2023/10/12 14:13:48;;;;;;;;;;;;;;;28.13;42.41;94481.22;5057976;28;7923;-61
2023/10/12 14:16:30;;;;;;;;;;;;;;;28.12;42.25;94485.25;5081147;28;7009;-61
2023/10/12 14:18:56;;;;;;;;;;;;;;;28.10;42.05;94482.25;5038396;28;7181;-61
2023/10/12 14:21:54;;;;;;;;;;;;;;;28.10;42.09;94485.03;5054259;28;7266;-61
2023/10/12 14:24:24;;;;;;;;;;;;;;;28.09;42.67;94477.25;4993408;28;7241;-61
2023/10/12 14:27:21;;;;;;;;;;;;;;;28.12;42.78;94481.75;5018750;28;7444;-61
2023/10/12 14:30:29;;;;;;;;;;;;;;;28.12;42.57;94481.75;4961845;28;10669;-61
2023/10/12 14:33:02;;;;;;;;;;;;;;;28.11;42.33;94475.47;4916586;29;7234;-61
2023/10/12 14:35:30;;;;;;;;;;;;;;;28.10;42.98;94473.22;4917116;29;7083;-61
2023/10/12 14:37:57;;;;;;;;;;;;;;;28.11;42.70;94483.75;4931669;29;7063;-61
2023/10/12 14:40:40;;;;;;;;;;;;;;;28.10;43.11;94476.00;4926132;29;7443;-61
2023/10/12 14:43:23;;;;;;;;;;;;;;;28.12;42.41;94476.94;4933688;29;7363;-60
2023/10/12 14:45:58;;;;;;;;;;;;;;;28.12;42.08;94478.97;4916327;29;7164;-65
2023/10/12 14:48:34;;;;;;;;;;;;;;;28.10;42.64;94467.69;4935581;29;7667;-65
2023/10/12 14:54:42;;;;;;;;;;;;;;;28.08;42.83;94453.63;4897083;29;7240;-65
2023/10/12 14:57:12;;;;;;;;;;;;;;;28.11;42.89;94455.34;4880661;29;8775;-64
2023/10/12 14:59:50;;;;;;;;;;;;;;;28.13;42.07;94452.81;4870508;29;7134;-65
2023/10/12 15:02:36;;;;;;;;;;;;;;;28.21;42.02;94451.66;4859924;29;7208;-65
2023/10/12 15:05:25;;;;;;;;;;;;;;;28.21;41.91;94454.44;4917687;28;7143;-65
2023/10/12 15:08:04;;;;;;;;;;;;;;;28.23;42.19;94456.69;4985822;28;8257;-65
2023/10/12 15:11:20;;;;;;;;;;;;;;;28.25;42.02;94454.13;4977119;28;7010;-65
2023/10/12 15:13:49;;;;;;;;;;;;;;;28.24;42.47;94452.63;4953457;28;7447;-65
2023/10/12 15:16:15;;;;;;;;;;;;;;;28.26;42.36;94452.84;4945244;28;9523;-65
2023/10/12 15:18:41;;;;;;;;;;;;;;;28.29;42.06;94454.56;4953305;28;7191;-65
2023/10/12 15:21:16;;;;;;;;;;;;;;;28.31;41.95;94454.78;4959762;28;6964;-65
2023/10/12 15:23:47;;;;;;;;;;;;;;;28.35;42.54;94464.28;4950009;28;7057;-65
2023/10/12 15:26:16;;;;;;;;;;;;;;;28.33;42.28;94460.53;4941194;28;7235;-65
2023/10/12 15:28:47;;;;;;;;;;;;;;;28.36;42.15;94456.72;4961561;28;7066;-65
2023/10/12 15:31:29;;;;;;;;;;;;;;;28.35;42.44;94458.00;4979437;28;6990;-65
2023/10/12 15:33:58;;;;;;;;;;;;;;;28.36;42.18;94460.22;5005311;28;7250;-65
2023/10/12 15:36:24;;;;;;;;;;;;;;;28.36;41.75;94465.03;5018162;28;7420;-65